This is the latest recevied weather packets stored in our database for station/object VK2OB. If no packets are shown the sender has not sent any weather packets the latest 10 day(s).
| Time | Temp. | Humidity | Pressure | Rain* | Wind** | Luminosity | Snow |
|---|---|---|---|---|---|---|---|
| 1777507910 | 27.78° C | 49% | 1030.8 hPa | 0 mm | - | - | - |
| 1777507610 | 27.78° C | 50% | 1030.8 hPa | 0 mm | - | - | - |
| 1777507312 | 26.67° C | 55% | 1030.8 hPa | 0 mm | - | - | - |
| 1777507013 | 26.11° C | 57% | 1030.7 hPa | 0 mm | - | - | - |
| 1777506714 | 26.11° C | 54% | 1030.9 hPa | 0 mm | - | - | - |
| 1777506415 | 26.11° C | 56% | 1030.9 hPa | 0 mm | - | - | - |
| 1777506116 | 25.56° C | 60% | 1030.9 hPa | 0 mm | - | - | - |
| 1777505817 | 25° C | 64% | 1030.9 hPa | 0 mm | - | - | - |
| 1777505518 | 23.33° C | 72% | 1030.9 hPa | 0 mm | - | - | - |
| 1777505219 | 21.67° C | 74% | 1030.9 hPa | 0 mm | - | - | - |
| 1777504920 | 21.11° C | 76% | 1030.9 hPa | 0 mm | - | - | - |
| 1777504621 | 21.11° C | 77% | 1030.8 hPa | 0 mm | - | - | - |
| 1777504322 | 21.11° C | 78% | 1030.9 hPa | 0 mm | - | - | - |
| 1777504022 | 20.56° C | 79% | 1030.9 hPa | 0 mm | - | - | - |
| 1777503717 | 20.56° C | 82% | 1030.8 hPa | 0 mm | - | - | - |
| 1777503265 | 20° C | 89% | 1030.9 hPa | 0 mm | - | - | - |
| 1777502966 | 20° C | 90% | 1030.8 hPa | 0 mm | - | - | - |
| 1777502667 | 19.44° C | 91% | 1030.9 hPa | 0 mm | - | - | - |
| 1777502368 | 18.89° C | 92% | 1030.8 hPa | 0 mm | - | - | - |
| 1777502069 | 18.89° C | 92% | 1030.8 hPa | 0 mm | - | - | - |
| 1777501770 | 18.33° C | 94% | 1030.8 hPa | 0 mm | - | - | - |
| 1777501471 | 18.33° C | 94% | 1030.8 hPa | 0 mm | - | - | - |
| 1777501172 | 17.78° C | 93% | 1030.8 hPa | 0 mm | - | - | - |
| 1777500873 | 18.33° C | 95% | 1030.7 hPa | 0 mm | - | - | - |
| 1777500574 | 17.78° C | 94% | 1030.7 hPa | 0 mm | - | - | - |
* Rain latest hour (hover to see other rain measurements)
** Current wind speed in m/s (hover to see current wind gust speed)